Time;durP1;ratioP1;P1;durP2;ratioP2;P2;SDS_P1;SDS_P2;PMS_P1;PMS_P2;Temp;Humidity;BMP_temperature;BMP_pressure;BME280_temperature;BME280_humidity;BME280_pressure;Samples;Min_cycle;Max_cycle;Signal;HPM_P1;HPM_P2
2020/12/28 00:00:38;;;;;;;0.40;0.40;;;7.60;60.90;;;;;;5013829;28;20210;-85
2020/12/28 00:03:04;;;;;;;0.40;0.40;;;7.60;60.20;;;;;;5016095;28;20245;-87
2020/12/28 00:05:31;;;;;;;0.40;0.40;;;7.60;60.50;;;;;;5017338;28;20286;-85
2020/12/28 00:07:58;;;;;;;0.60;0.60;;;7.50;60.90;;;;;;5017347;28;20211;-86
2020/12/28 00:10:25;;;;;;;0.40;0.40;;;7.50;60.70;;;;;;5017674;28;20197;-85
2020/12/28 00:12:52;;;;;;;3.65;0.55;;;7.40;60.60;;;;;;5017374;28;20206;-86
2020/12/28 00:15:21;;;;;;;0.40;0.40;;;7.50;60.60;;;;;;5017336;28;20230;-86
2020/12/28 00:17:49;;;;;;;0.95;0.60;;;7.50;61.30;;;;;;5017278;28;20202;-87
2020/12/28 00:20:16;;;;;;;0.80;0.75;;;7.50;60.40;;;;;;5017312;28;20194;-85
2020/12/28 00:22:43;;;;;;;0.80;0.60;;;7.40;60.50;;;;;;5017411;28;20198;-84
2020/12/28 00:25:09;;;;;;;0.60;0.60;;;7.30;61.80;;;;;;5015899;28;20223;-87
2020/12/28 00:27:37;;;;;;;0.90;0.43;;;7.40;61.80;;;;;;5014447;28;20210;-88
2020/12/28 00:30:04;;;;;;;1.75;0.40;;;7.40;61.30;;;;;;5013097;28;20206;-86
2020/12/28 00:32:34;;;;;;;0.45;0.45;;;7.40;61.60;;;;;;5005533;28;20230;-86
2020/12/28 00:35:01;;;;;;;0.60;0.60;;;7.40;61.90;;;;;;5004093;28;20248;-86
2020/12/28 00:37:27;;;;;;;0.93;0.70;;;7.40;63.50;;;;;;5006028;28;20214;-84
2020/12/28 00:39:54;;;;;;;0.40;0.40;;;7.20;66.20;;;;;;5009491;28;20266;-85
2020/12/28 00:42:20;;;;;;;1.15;0.68;;;7.10;66.10;;;;;;5012657;28;20229;-85
2020/12/28 00:44:47;;;;;;;0.50;0.47;;;7.10;66.10;;;;;;5016796;28;20234;-87
2020/12/28 00:47:14;;;;;;;0.38;0.38;;;7.00;67.70;;;;;;5016432;28;20194;-85
2020/12/28 00:49:42;;;;;;;0.65;0.50;;;7.00;68.80;;;;;;5016484;28;20198;-86
2020/12/28 00:52:09;;;;;;;0.40;0.40;;;7.00;70.40;;;;;;5016763;28;20191;-86
2020/12/28 00:54:36;;;;;;;0.40;0.40;;;7.00;70.60;;;;;;5017346;28;20237;-87
2020/12/28 00:57:03;;;;;;;0.70;0.70;;;6.90;71.00;;;;;;5016488;28;20186;-86
2020/12/28 00:59:29;;;;;;;1.67;0.52;;;6.90;72.00;;;;;;5017233;28;20233;-84
2020/12/28 01:01:58;;;;;;;0.40;0.40;;;6.80;72.80;;;;;;5016958;28;20236;-86
2020/12/28 01:04:25;;;;;;;0.40;0.40;;;6.70;74.50;;;;;;5016685;28;20197;-87
2020/12/28 01:06:51;;;;;;;0.50;0.40;;;6.70;75.00;;;;;;5016368;28;20249;-87
2020/12/28 01:09:18;;;;;;;1.38;0.50;;;6.60;76.50;;;;;;5017053;28;20222;-87
2020/12/28 01:11:45;;;;;;;0.50;0.50;;;6.60;77.70;;;;;;5017093;28;20205;-87
2020/12/28 01:14:13;;;;;;;0.93;0.50;;;6.60;77.30;;;;;;5016858;28;20205;-86
2020/12/28 01:16:43;;;;;;;1.05;0.65;;;6.60;76.90;;;;;;5016892;28;20182;-86
2020/12/28 01:19:10;;;;;;;0.47;0.47;;;6.70;77.30;;;;;;5017022;28;20177;-84
2020/12/28 01:21:37;;;;;;;0.40;0.40;;;6.60;77.90;;;;;;5016632;28;20257;-86
2020/12/28 01:24:03;;;;;;;0.65;0.50;;;6.50;79.00;;;;;;5013987;28;20206;-87
2020/12/28 01:26:30;;;;;;;0.40;0.40;;;6.60;80.60;;;;;;5006343;28;20232;-86
2020/12/28 01:28:56;;;;;;;0.75;0.75;;;6.50;81.30;;;;;;5012310;28;20217;-85
2020/12/28 01:31:23;;;;;;;0.55;0.50;;;6.60;82.70;;;;;;5016372;28;20308;-85
2020/12/28 01:33:49;;;;;;;1.85;0.40;;;6.50;83.40;;;;;;5016293;28;20216;-87
2020/12/28 01:36:17;;;;;;;0.30;0.30;;;6.50;84.50;;;;;;5015792;28;20553;-86
2020/12/28 01:38:43;;;;;;;0.60;0.40;;;6.50;85.40;;;;;;5016155;28;20301;-91
2020/12/28 01:41:10;;;;;;;0.50;0.45;;;6.40;85.80;;;;;;5017806;28;20213;-87
2020/12/28 01:43:36;;;;;;;0.30;0.30;;;6.40;87.10;;;;;;5016958;28;20226;-87
2020/12/28 01:46:03;;;;;;;0.60;0.40;;;6.40;88.80;;;;;;5006629;28;20233;-84
2020/12/28 01:48:31;;;;;;;0.40;0.40;;;6.40;89.10;;;;;;5001599;28;20260;-87
2020/12/28 01:50:58;;;;;;;0.88;0.60;;;6.40;89.00;;;;;;5014675;28;20237;-89
2020/12/28 01:53:26;;;;;;;0.60;0.40;;;6.40;88.30;;;;;;5019944;28;20209;-88
2020/12/28 01:55:58;;;;;;;0.73;0.55;;;6.40;87.40;;;;;;5014049;28;20256;-87
2020/12/28 01:58:25;;;;;;;0.50;0.40;;;6.40;88.00;;;;;;5013432;28;20264;-85
2020/12/28 02:00:52;;;;;;;0.32;0.32;;;6.40;88.20;;;;;;5002537;28;20580;-85
2020/12/28 02:03:19;;;;;;;1.05;0.50;;;6.40;88.30;;;;;;5002987;28;20222;-86
2020/12/28 02:05:45;;;;;;;0.50;0.50;;;6.30;89.10;;;;;;5008520;28;20301;-87
2020/12/28 02:08:12;;;;;;;0.30;0.30;;;6.40;90.10;;;;;;5013546;28;20213;-87
2020/12/28 02:10:39;;;;;;;0.40;0.40;;;6.30;89.80;;;;;;5014996;28;20243;-87
2020/12/28 02:13:06;;;;;;;0.30;0.30;;;6.40;89.00;;;;;;5014181;28;20213;-87
2020/12/28 02:15:33;;;;;;;1.08;0.60;;;6.40;89.00;;;;;;5005816;28;20229;-87
2020/12/28 02:18:00;;;;;;;0.80;0.50;;;6.30;89.70;;;;;;5015958;28;20223;-87
2020/12/28 02:20:26;;;;;;;0.40;0.40;;;6.30;89.60;;;;;;5019739;28;20206;-87
2020/12/28 02:22:53;;;;;;;0.40;0.40;;;6.20;89.90;;;;;;5018952;28;20245;-86
2020/12/28 02:25:20;;;;;;;0.82;0.70;;;6.30;89.10;;;;;;5019882;28;20214;-84
2020/12/28 02:27:46;;;;;;;0.70;0.50;;;6.30;87.90;;;;;;5020018;28;20197;-86
2020/12/28 02:30:13;;;;;;;0.88;0.47;;;6.30;87.60;;;;;;5019584;28;20189;-86
2020/12/28 02:32:39;;;;;;;0.60;0.40;;;6.20;88.60;;;;;;5019797;28;20267;-85
2020/12/28 02:35:06;;;;;;;1.20;0.50;;;6.20;89.80;;;;;;5019347;28;20237;-90
2020/12/28 02:37:33;;;;;;;0.40;0.40;;;6.30;89.70;;;;;;5018250;28;20220;-87
2020/12/28 02:40:01;;;;;;;0.30;0.30;;;6.20;89.30;;;;;;5017435;28;20193;-87
2020/12/28 02:42:27;;;;;;;0.40;0.40;;;6.20;89.20;;;;;;5002951;28;20264;-83
2020/12/28 02:44:53;;;;;;;0.65;0.40;;;6.10;90.20;;;;;;5005580;28;20227;-86
2020/12/28 02:47:20;;;;;;;0.30;0.30;;;6.20;90.20;;;;;;5009610;28;20259;-85
2020/12/28 02:49:46;;;;;;;0.50;0.40;;;6.20;90.20;;;;;;5007156;28;20199;-88
2020/12/28 02:52:13;;;;;;;0.82;0.43;;;6.20;90.30;;;;;;5011539;28;20229;-87
2020/12/28 02:54:39;;;;;;;0.50;0.50;;;6.20;90.40;;;;;;5018650;28;20217;-85
2020/12/28 02:57:07;;;;;;;0.45;0.40;;;6.20;90.70;;;;;;5018835;28;20185;-84
2020/12/28 02:59:33;;;;;;;0.50;0.50;;;6.20;91.30;;;;;;5018716;28;20269;-84
2020/12/28 03:01:59;;;;;;;1.30;0.50;;;6.10;91.80;;;;;;5017969;28;20234;-85
2020/12/28 03:04:26;;;;;;;0.63;0.63;;;6.10;92.30;;;;;;5014964;28;20256;-85
2020/12/28 03:06:52;;;;;;;0.73;0.40;;;6.10;92.40;;;;;;5002024;28;20207;-86
2020/12/28 03:09:18;;;;;;;1.70;0.60;;;6.20;92.60;;;;;;5006624;28;20215;-85
2020/12/28 03:11:45;;;;;;;0.60;0.52;;;6.10;93.00;;;;;;5004276;28;20213;-85
2020/12/28 03:14:13;;;;;;;0.73;0.57;;;6.20;93.30;;;;;;5005316;28;20319;-86
2020/12/28 03:16:39;;;;;;;3.03;0.60;;;6.10;93.70;;;;;;5007456;28;20294;-86
2020/12/28 03:19:05;;;;;;;1.00;0.57;;;6.10;93.50;;;;;;5005752;28;20240;-86
2020/12/28 03:21:32;;;;;;;0.50;0.50;;;6.20;93.80;;;;;;5003351;28;20693;-86
2020/12/28 03:23:58;;;;;;;3.50;0.88;;;6.10;93.00;;;;;;5004208;28;20238;-86
2020/12/28 03:26:25;;;;;;;0.82;0.40;;;6.10;93.20;;;;;;5004435;28;20670;-86
2020/12/28 03:28:51;;;;;;;1.02;0.50;;;6.10;93.10;;;;;;5002787;28;20228;-86
2020/12/28 03:31:19;;;;;;;0.75;0.60;;;6.20;93.50;;;;;;5002784;28;20281;-86
2020/12/28 03:33:45;;;;;;;0.50;0.50;;;6.20;93.20;;;;;;5002647;28;20244;-87
2020/12/28 03:36:11;;;;;;;1.27;0.70;;;6.10;93.40;;;;;;5001873;28;20276;-85
2020/12/28 03:38:38;;;;;;;1.25;0.50;;;6.20;93.90;;;;;;5003097;28;20213;-87
2020/12/28 03:41:04;;;;;;;2.28;0.50;;;6.20;93.90;;;;;;5002610;28;20695;-86
2020/12/28 03:43:31;;;;;;;0.60;0.57;;;6.20;93.90;;;;;;5011098;28;20214;-87
2020/12/28 03:45:58;;;;;;;0.52;0.52;;;6.20;93.90;;;;;;5012870;28;20246;-85
2020/12/28 03:48:25;;;;;;;1.27;0.55;;;6.20;93.90;;;;;;5010001;28;20213;-85
2020/12/28 03:50:52;;;;;;;0.50;0.50;;;6.20;93.90;;;;;;5005675;28;20248;-86
2020/12/28 03:53:18;;;;;;;1.38;0.60;;;6.20;94.00;;;;;;5006937;28;20213;-86
2020/12/28 03:55:44;;;;;;;1.00;0.63;;;6.20;94.30;;;;;;5004600;28;20287;-86
2020/12/28 03:58:11;;;;;;;0.70;0.70;;;6.10;94.80;;;;;;5004216;28;20205;-85
2020/12/28 04:00:37;;;;;;;0.73;0.70;;;6.10;94.90;;;;;;5004704;28;20202;-87
2020/12/28 04:03:03;;;;;;;1.75;0.60;;;6.10;95.30;;;;;;5004525;28;20217;-86
2020/12/28 04:05:31;;;;;;;1.65;0.70;;;6.10;95.50;;;;;;5005515;28;20236;-87
2020/12/28 04:07:57;;;;;;;1.00;0.85;;;6.10;95.60;;;;;;5005415;28;20242;-87
2020/12/28 04:10:26;;;;;;;0.85;0.65;;;6.10;95.60;;;;;;5006409;28;20214;-87
2020/12/28 04:12:52;;;;;;;0.60;0.50;;;6.10;95.90;;;;;;5006318;28;20216;-85
2020/12/28 04:15:19;;;;;;;0.50;0.50;;;6.10;96.00;;;;;;5008267;28;20269;-86
2020/12/28 04:17:45;;;;;;;0.63;0.55;;;6.10;96.40;;;;;;5014422;28;20227;-85
2020/12/28 04:20:12;;;;;;;0.52;0.52;;;6.10;96.60;;;;;;5012337;28;20600;-86
2020/12/28 04:22:39;;;;;;;0.63;0.60;;;6.10;96.80;;;;;;5008308;28;20253;-86
2020/12/28 04:25:06;;;;;;;0.50;0.50;;;6.00;96.90;;;;;;5010259;28;20283;-86
2020/12/28 04:27:32;;;;;;;0.77;0.70;;;5.90;97.20;;;;;;5009027;28;20221;-86
2020/12/28 04:29:58;;;;;;;0.80;0.55;;;5.90;97.30;;;;;;5009701;28;20708;-87
2020/12/28 04:32:25;;;;;;;1.50;0.80;;;5.80;98.00;;;;;;5007605;28;20240;-85
2020/12/28 04:34:52;;;;;;;0.57;0.57;;;5.90;98.40;;;;;;5010336;28;20234;-86
2020/12/28 04:37:18;;;;;;;1.15;0.80;;;5.90;98.60;;;;;;5016894;28;20214;-84
2020/12/28 04:39:46;;;;;;;1.73;0.98;;;5.90;98.90;;;;;;5016823;28;20207;-86
2020/12/28 04:42:12;;;;;;;0.73;0.70;;;5.80;99.00;;;;;;5013314;28;20226;-86
2020/12/28 04:44:39;;;;;;;0.63;0.63;;;5.90;99.30;;;;;;5011969;28;20263;-86
2020/12/28 04:47:05;;;;;;;2.35;0.90;;;5.90;99.60;;;;;;5010245;28;20224;-86
2020/12/28 04:49:32;;;;;;;0.50;0.50;;;5.90;99.90;;;;;;5013243;28;20209;-85
2020/12/28 04:52:02;;;;;;;0.57;0.57;;;5.90;99.90;;;;;;5008248;28;20214;-86
2020/12/28 04:54:28;;;;;;;1.05;0.73;;;5.90;99.90;;;;;;5006408;28;20467;-86
2020/12/28 04:56:58;;;;;;;0.70;0.70;;;6.00;99.90;;;;;;5004983;28;20217;-85
2020/12/28 04:59:24;;;;;;;0.90;0.90;;;6.00;99.90;;;;;;5005038;28;20213;-85
2020/12/28 05:01:54;;;;;;;0.75;0.70;;;6.00;99.90;;;;;;5005517;28;20222;-85
2020/12/28 05:04:23;;;;;;;0.65;0.60;;;6.00;99.90;;;;;;5005923;28;20274;-86
2020/12/28 05:06:59;;;;;;;1.75;0.70;;;6.00;99.90;;;;;;5005313;28;20210;-85
2020/12/28 05:09:27;;;;;;;1.05;0.60;;;6.00;99.90;;;;;;5005710;28;20206;-85
2020/12/28 05:11:56;;;;;;;0.98;0.60;;;6.00;99.20;;;;;;5006981;28;20202;-85
2020/12/28 05:14:23;;;;;;;0.60;0.60;;;5.90;98.80;;;;;;5004078;28;20235;-85
2020/12/28 05:16:50;;;;;;;0.70;0.70;;;5.80;98.30;;;;;;5008216;28;20214;-85
2020/12/28 05:19:18;;;;;;;0.82;0.50;;;5.80;98.20;;;;;;5020307;28;20202;-85
2020/12/28 05:21:45;;;;;;;0.80;0.70;;;5.70;97.30;;;;;;5020850;28;20365;-85
2020/12/28 05:24:13;;;;;;;0.40;0.40;;;5.60;97.20;;;;;;5020239;28;20218;-86
2020/12/28 05:26:42;;;;;;;0.75;0.60;;;5.60;97.20;;;;;;5018311;28;20221;-85
2020/12/28 05:29:13;;;;;;;1.40;0.50;;;5.60;97.20;;;;;;5020821;28;20206;-84
2020/12/28 05:31:40;;;;;;;0.88;0.50;;;5.60;97.20;;;;;;5020848;28;20224;-84
2020/12/28 05:34:13;;;;;;;1.95;0.70;;;5.60;97.20;;;;;;5020725;28;20209;-84
2020/12/28 05:36:40;;;;;;;0.55;0.55;;;5.60;97.50;;;;;;5020100;28;20177;-85
2020/12/28 05:39:07;;;;;;;0.65;0.65;;;5.60;97.90;;;;;;5013486;28;20209;-85
2020/12/28 05:41:34;;;;;;;0.68;0.60;;;5.60;97.80;;;;;;5011887;28;20248;-85
2020/12/28 05:44:11;;;;;;;0.50;0.50;;;5.50;97.10;;;;;;5012528;28;20213;-86
2020/12/28 05:46:38;;;;;;;0.93;0.50;;;5.50;97.10;;;;;;5015948;28;20213;-86
2020/12/28 05:49:10;;;;;;;0.93;0.55;;;5.40;97.00;;;;;;5018480;28;20630;-84
2020/12/28 05:51:36;;;;;;;0.70;0.70;;;5.40;97.00;;;;;;5015802;28;20205;-84
2020/12/28 05:54:11;;;;;;;0.70;0.50;;;5.40;97.10;;;;;;5018804;28;20289;-86
2020/12/28 05:56:42;;;;;;;0.50;0.50;;;5.30;96.50;;;;;;5016539;28;20221;-85
2020/12/28 05:59:12;;;;;;;1.15;0.90;;;5.20;96.70;;;;;;5019083;28;20274;-86
2020/12/28 06:01:43;;;;;;;1.42;0.80;;;5.30;97.00;;;;;;5019897;28;20238;-84
2020/12/28 06:04:14;;;;;;;0.70;0.70;;;5.20;97.00;;;;;;5019705;28;20220;-86
2020/12/28 06:06:42;;;;;;;1.42;0.82;;;5.20;97.30;;;;;;5015756;28;20241;-86
2020/12/28 06:09:09;;;;;;;0.80;0.80;;;5.20;97.50;;;;;;5013761;28;20214;-86
2020/12/28 06:11:35;;;;;;;1.15;0.90;;;5.20;97.00;;;;;;5018360;28;20213;-85
2020/12/28 06:14:13;;;;;;;0.85;0.85;;;5.20;97.00;;;;;;5017697;28;20206;-85
2020/12/28 06:16:40;;;;;;;0.80;0.80;;;5.20;97.10;;;;;;5015566;28;20293;-85
2020/12/28 06:19:06;;;;;;;1.00;0.90;;;5.30;97.20;;;;;;5014498;28;20213;-85
2020/12/28 06:21:36;;;;;;;1.00;0.88;;;5.30;97.30;;;;;;5012809;28;20221;-85
2020/12/28 06:24:04;;;;;;;1.40;1.20;;;5.30;97.00;;;;;;5015348;28;20232;-85
2020/12/28 06:26:30;;;;;;;1.05;0.80;;;5.30;96.10;;;;;;5015254;28;20195;-85
2020/12/28 06:29:04;;;;;;;2.33;1.00;;;5.30;96.30;;;;;;5015333;28;20214;-83
2020/12/28 06:31:32;;;;;;;1.10;1.00;;;5.30;95.90;;;;;;5014771;28;20241;-85
2020/12/28 06:33:58;;;;;;;0.90;0.90;;;5.30;95.60;;;;;;5016876;28;20212;-85
2020/12/28 06:36:25;;;;;;;0.98;0.98;;;5.40;95.30;;;;;;5016470;28;20232;-83
2020/12/28 06:38:55;;;;;;;0.88;0.88;;;5.40;94.90;;;;;;5009114;28;20257;-84
2020/12/28 06:41:26;;;;;;;2.00;1.30;;;5.30;94.50;;;;;;5014185;28;20237;-85
2020/12/28 06:43:57;;;;;;;1.10;1.10;;;5.30;94.40;;;;;;5015191;28;20198;-86
2020/12/28 06:46:24;;;;;;;1.23;1.13;;;5.30;93.70;;;;;;5010484;28;20257;-86
2020/12/28 06:48:51;;;;;;;1.70;1.17;;;5.30;93.70;;;;;;5009143;28;20217;-86
2020/12/28 06:51:18;;;;;;;1.30;1.20;;;5.40;94.00;;;;;;5008476;28;20214;-84
2020/12/28 06:53:52;;;;;;;1.42;1.20;;;5.40;94.10;;;;;;5007195;28;20233;-85
2020/12/28 06:56:18;;;;;;;1.13;1.02;;;5.30;93.50;;;;;;5014561;28;20286;-86
2020/12/28 06:58:45;;;;;;;1.42;1.33;;;5.40;94.10;;;;;;5019203;28;20193;-84
2020/12/28 07:01:12;;;;;;;0.88;0.88;;;5.30;93.50;;;;;;5018777;28;20723;-86
2020/12/28 07:03:38;;;;;;;1.80;1.70;;;5.30;93.50;;;;;;5019080;28;20224;-84
2020/12/28 07:06:06;;;;;;;2.85;2.50;;;5.30;93.50;;;;;;5018699;28;20226;-85
2020/12/28 07:08:33;;;;;;;2.35;1.20;;;5.30;92.70;;;;;;5018621;28;20216;-85
2020/12/28 07:11:01;;;;;;;1.67;1.50;;;5.20;92.50;;;;;;5017894;28;20214;-84
2020/12/28 07:13:28;;;;;;;1.20;1.10;;;5.30;92.90;;;;;;5018320;28;20194;-86
2020/12/28 07:16:04;;;;;;;1.17;1.08;;;5.30;93.10;;;;;;5018113;28;20236;-86
2020/12/28 07:18:30;;;;;;;1.10;1.10;;;5.30;93.00;;;;;;5018143;28;20204;-86
2020/12/28 07:20:57;;;;;;;1.40;1.30;;;5.30;93.30;;;;;;5017022;28;20192;-85
2020/12/28 07:23:25;;;;;;;1.20;1.20;;;5.20;93.40;;;;;;5018196;28;20207;-84
2020/12/28 07:26:04;;;;;;;1.67;1.55;;;5.20;93.50;;;;;;5012579;28;20760;-84
2020/12/28 07:28:31;;;;;;;1.85;1.20;;;5.30;93.50;;;;;;5005814;28;20268;-86
2020/12/28 07:30:58;;;;;;;1.60;1.50;;;5.30;93.70;;;;;;5007007;28;20192;-86
2020/12/28 07:33:24;;;;;;;1.38;1.27;;;5.30;93.90;;;;;;5005196;28;20312;-84
2020/12/28 07:36:05;;;;;;;1.50;1.40;;;5.30;94.00;;;;;;5004822;28;20228;-85
2020/12/28 07:38:33;;;;;;;1.70;1.60;;;5.20;93.50;;;;;;5005935;28;20219;-85
2020/12/28 07:41:00;;;;;;;1.48;1.38;;;5.10;93.40;;;;;;5005931;28;20225;-85
2020/12/28 07:43:27;;;;;;;1.25;1.15;;;5.20;93.30;;;;;;5005539;28;20314;-86
2020/12/28 07:45:53;;;;;;;1.52;1.42;;;5.10;92.50;;;;;;5007834;28;20704;-84
2020/12/28 07:48:22;;;;;;;1.30;1.30;;;5.10;92.30;;;;;;5008402;28;20211;-86
2020/12/28 07:50:53;;;;;;;1.67;1.58;;;5.00;92.70;;;;;;5006550;28;20213;-85
2020/12/28 07:53:26;;;;;;;1.58;1.48;;;5.00;92.40;;;;;;5015518;28;20224;-85
2020/12/28 07:55:59;;;;;;;1.70;1.60;;;4.90;93.30;;;;;;5017936;28;20214;-83
2020/12/28 07:58:39;;;;;;;1.65;1.55;;;4.80;93.30;;;;;;5017944;28;20179;-83
2020/12/28 08:01:15;;;;;;;2.75;1.70;;;4.80;94.10;;;;;;5017979;28;20196;-84
2020/12/28 08:03:47;;;;;;;2.00;1.90;;;4.80;94.80;;;;;;5017507;28;20201;-84
2020/12/28 08:06:15;;;;;;;1.98;1.88;;;4.70;95.10;;;;;;5017077;28;20213;-83
2020/12/28 08:08:42;;;;;;;1.60;1.50;;;4.70;95.40;;;;;;5017666;28;20404;-84
2020/12/28 08:11:09;;;;;;;2.15;1.70;;;4.80;95.80;;;;;;5010116;28;20211;-86
2020/12/28 08:13:37;;;;;;;2.10;1.90;;;4.80;95.60;;;;;;5008220;28;20214;-86
2020/12/28 08:16:11;;;;;;;2.83;2.10;;;4.80;95.90;;;;;;5015986;28;20216;-83
2020/12/28 08:18:45;;;;;;;2.33;1.67;;;4.90;96.20;;;;;;5014456;28;20210;-86
2020/12/28 08:21:11;;;;;;;2.08;1.80;;;5.00;95.30;;;;;;5009439;28;20253;-85
2020/12/28 08:23:37;;;;;;;2.10;1.90;;;4.90;94.90;;;;;;5016474;28;20202;-84
2020/12/28 08:26:17;;;;;;;2.22;2.03;;;5.00;94.20;;;;;;5014896;28;20223;-85
2020/12/28 08:28:50;;;;;;;1.88;1.67;;;5.00;93.40;;;;;;5004385;28;20253;-83
2020/12/28 08:31:17;;;;;;;1.55;1.45;;;5.10;93.40;;;;;;5003310;28;20270;-85
2020/12/28 08:33:43;;;;;;;1.80;1.70;;;5.10;92.90;;;;;;5002789;28;20229;-85
2020/12/28 08:36:10;;;;;;;1.40;1.30;;;5.20;92.90;;;;;;5004028;28;20241;-81
2020/12/28 08:38:36;;;;;;;1.10;1.05;;;5.30;92.40;;;;;;5003937;28;20212;-84
2020/12/28 08:41:03;;;;;;;1.40;1.30;;;5.20;91.30;;;;;;5005306;28;20213;-84
2020/12/28 08:43:30;;;;;;;1.35;1.15;;;5.10;91.40;;;;;;5004988;28;20243;-84
2020/12/28 08:46:05;;;;;;;3.58;1.65;;;5.10;91.20;;;;;;5048715;23;20244;-83
2020/12/28 08:48:31;;;;;;;1.42;1.20;;;5.30;91.70;;;;;;5000293;28;20421;-84
2020/12/28 08:50:58;;;;;;;1.10;0.70;;;5.40;91.70;;;;;;5001526;28;20222;-83
2020/12/28 08:53:25;;;;;;;1.33;1.23;;;5.50;90.50;;;;;;5002679;28;20307;-83
2020/12/28 08:56:01;;;;;;;1.10;1.00;;;5.50;88.70;;;;;;5001871;28;20276;-84
2020/12/28 08:58:27;;;;;;;0.73;0.73;;;5.60;88.90;;;;;;5002818;28;20202;-82
2020/12/28 09:00:55;;;;;;;1.02;0.90;;;5.60;87.80;;;;;;5002875;28;20574;-84
2020/12/28 09:03:21;;;;;;;1.30;1.30;;;5.70;86.10;;;;;;5003982;28;20257;-84
2020/12/28 09:05:47;;;;;;;1.00;1.00;;;5.70;84.50;;;;;;5005097;28;20226;-83
2020/12/28 09:08:14;;;;;;;1.77;1.10;;;5.80;83.30;;;;;;5008485;28;20214;-83
2020/12/28 09:10:40;;;;;;;1.50;1.30;;;5.80;82.10;;;;;;5009419;28;20228;-82
2020/12/28 09:13:07;;;;;;;0.90;0.90;;;5.80;81.70;;;;;;5011236;28;20216;-83
2020/12/28 09:15:33;;;;;;;1.48;1.20;;;5.90;81.50;;;;;;5011168;28;20221;-82
2020/12/28 09:18:00;;;;;;;1.40;1.10;;;5.90;81.20;;;;;;5011256;28;20213;-83
2020/12/28 09:20:27;;;;;;;2.17;1.58;;;6.10;81.20;;;;;;5011147;28;20230;-83
2020/12/28 09:22:53;;;;;;;1.40;1.27;;;6.00;79.20;;;;;;5012492;28;20220;-84
2020/12/28 09:25:20;;;;;;;1.17;1.00;;;6.00;79.20;;;;;;5012476;28;20232;-84
2020/12/28 09:27:46;;;;;;;1.00;1.00;;;6.00;79.20;;;;;;5011063;28;20210;-84
2020/12/28 09:30:13;;;;;;;1.00;0.90;;;5.90;78.50;;;;;;5010958;28;20637;-83
2020/12/28 09:32:40;;;;;;;1.85;1.50;;;5.90;79.90;;;;;;5013093;28;20206;-84
2020/12/28 09:35:07;;;;;;;2.00;1.33;;;5.80;80.50;;;;;;5010116;28;20337;-83
2020/12/28 09:37:34;;;;;;;2.50;1.30;;;5.70;81.10;;;;;;5010013;28;20203;-83
2020/12/28 09:40:01;;;;;;;1.60;1.50;;;5.80;82.10;;;;;;5011049;28;20218;-83
2020/12/28 09:42:27;;;;;;;3.13;1.58;;;5.80;82.10;;;;;;5010384;28;20261;-84
2020/12/28 09:44:53;;;;;;;1.73;1.35;;;5.90;82.20;;;;;;5008876;28;20722;-84
2020/12/28 09:47:20;;;;;;;2.80;1.70;;;5.90;79.10;;;;;;5008619;28;20205;-85
2020/12/28 09:49:47;;;;;;;2.17;1.55;;;6.00;79.50;;;;;;5009534;28;20208;-84
2020/12/28 09:52:14;;;;;;;2.85;1.75;;;6.00;79.30;;;;;;5010815;28;20205;-84
2020/12/28 09:54:41;;;;;;;2.17;1.20;;;6.10;80.50;;;;;;5013028;28;20201;-84
2020/12/28 09:57:07;;;;;;;1.98;1.40;;;6.20;80.00;;;;;;5015121;28;20209;-85
2020/12/28 09:59:35;;;;;;;1.30;1.20;;;6.40;79.40;;;;;;5016124;28;20197;-84
2020/12/28 10:02:01;;;;;;;2.20;1.08;;;6.60;78.00;;;;;;5016894;28;20214;-84
2020/12/28 10:04:28;;;;;;;1.27;1.17;;;6.70;76.30;;;;;;5019489;28;20393;-85
2020/12/28 10:06:54;;;;;;;1.25;0.88;;;6.90;74.60;;;;;;5019157;28;20198;-84
2020/12/28 10:09:22;;;;;;;2.28;1.60;;;6.90;73.30;;;;;;5017533;28;20204;-84
2020/12/28 10:11:48;;;;;;;1.17;1.08;;;6.90;70.90;;;;;;5017204;28;20205;-83
2020/12/28 10:14:15;;;;;;;3.70;2.50;;;7.00;71.50;;;;;;5019631;28;20206;-85
2020/12/28 10:16:42;;;;;;;2.33;1.95;;;7.00;70.10;;;;;;5019084;28;20218;-84
2020/12/28 10:19:09;;;;;;;1.58;1.48;;;6.80;69.90;;;;;;5019444;28;20200;-84
2020/12/28 10:21:35;;;;;;;1.52;1.30;;;6.70;72.30;;;;;;5019502;28;20220;-86
2020/12/28 10:24:03;;;;;;;1.67;1.40;;;6.80;71.40;;;;;;5018026;28;20210;-84
2020/12/28 10:26:31;;;;;;;2.72;1.38;;;6.80;71.50;;;;;;5017991;28;20250;-84
2020/12/28 10:28:58;;;;;;;1.85;1.20;;;6.90;71.60;;;;;;5019333;28;20219;-85
2020/12/28 10:31:26;;;;;;;1.10;1.10;;;7.10;71.00;;;;;;5019336;28;20198;-86
2020/12/28 10:33:52;;;;;;;1.05;0.95;;;6.90;70.40;;;;;;5019261;28;20207;-84
2020/12/28 10:36:21;;;;;;;1.40;1.30;;;6.80;71.50;;;;;;5010369;28;20249;-82
2020/12/28 10:38:48;;;;;;;1.40;1.30;;;6.70;72.00;;;;;;5013026;28;20202;-83
2020/12/28 10:41:14;;;;;;;1.30;1.20;;;6.90;70.90;;;;;;5017324;28;20202;-84
2020/12/28 10:43:42;;;;;;;1.00;0.95;;;7.10;71.40;;;;;;5010277;28;20269;-83
2020/12/28 10:46:10;;;;;;;1.75;1.20;;;7.30;70.20;;;;;;5006589;28;20265;-85
2020/12/28 10:48:37;;;;;;;1.33;1.13;;;7.40;69.00;;;;;;5008860;28;20368;-83
2020/12/28 10:51:04;;;;;;;1.48;1.10;;;7.40;68.00;;;;;;5015691;28;20213;-84
2020/12/28 10:53:30;;;;;;;1.00;1.00;;;7.30;68.70;;;;;;5015433;28;20218;-85
2020/12/28 10:55:57;;;;;;;1.52;1.10;;;7.10;69.70;;;;;;5013179;28;20231;-84
2020/12/28 10:58:24;;;;;;;1.25;1.15;;;7.30;71.20;;;;;;5016173;28;20206;-84
2020/12/28 11:00:55;;;;;;;1.02;0.95;;;7.40;70.10;;;;;;5018800;28;20207;-82
2020/12/28 11:03:21;;;;;;;1.30;1.20;;;7.50;67.90;;;;;;5018386;28;20222;-85
2020/12/28 11:05:47;;;;;;;1.27;1.13;;;7.70;69.10;;;;;;5018767;28;20221;-87
2020/12/28 11:08:14;;;;;;;1.23;1.15;;;7.60;67.50;;;;;;5017656;28;20207;-84
2020/12/28 11:10:41;;;;;;;1.00;0.82;;;7.50;68.80;;;;;;5012565;28;20209;-83
2020/12/28 11:13:08;;;;;;;1.75;1.50;;;7.50;67.40;;;;;;5009971;28;20595;-84
2020/12/28 11:15:35;;;;;;;2.15;1.38;;;7.60;68.20;;;;;;5013608;28;20207;-83
2020/12/28 11:18:02;;;;;;;1.50;1.40;;;7.60;68.50;;;;;;5014274;28;20210;-84
2020/12/28 11:20:28;;;;;;;2.20;1.10;;;7.60;66.50;;;;;;5008132;28;20218;-83
2020/12/28 11:22:55;;;;;;;1.30;1.20;;;7.70;67.20;;;;;;5013068;28;20227;-84
2020/12/28 11:25:21;;;;;;;1.40;1.30;;;7.80;67.90;;;;;;5008897;28;20247;-84
2020/12/28 11:27:48;;;;;;;1.50;1.40;;;7.90;66.80;;;;;;5014968;28;20355;-84
2020/12/28 11:30:15;;;;;;;1.30;1.20;;;8.00;66.80;;;;;;5017741;28;20215;-84
2020/12/28 11:32:42;;;;;;;1.20;1.10;;;8.00;66.00;;;;;;5017731;28;20199;-84
2020/12/28 11:35:10;;;;;;;1.38;1.27;;;8.10;66.10;;;;;;5017838;28;20227;-85
2020/12/28 11:37:44;;;;;;;1.52;1.00;;;8.10;65.00;;;;;;5017838;28;20207;-83
2020/12/28 11:40:10;;;;;;;2.15;1.73;;;8.10;65.70;;;;;;5013995;28;20260;-84
2020/12/28 11:42:37;;;;;;;5.72;3.03;;;7.90;66.80;;;;;;5011558;28;20337;-85
2020/12/28 11:45:07;;;;;;;2.25;1.88;;;7.90;66.80;;;;;;5017253;28;20271;-85
2020/12/28 11:47:34;;;;;;;7.55;2.70;;;7.80;66.70;;;;;;5013756;28;20206;-83
2020/12/28 11:50:01;;;;;;;1.60;1.42;;;7.80;66.70;;;;;;5010125;28;20285;-84
2020/12/28 11:52:28;;;;;;;1.05;1.00;;;7.80;66.70;;;;;;5011513;28;20225;-85
2020/12/28 11:54:56;;;;;;;2.20;1.30;;;7.70;66.60;;;;;;5010496;28;20248;-84
2020/12/28 11:57:23;;;;;;;1.20;1.10;;;7.90;66.80;;;;;;5011992;28;20241;-83
2020/12/28 11:59:49;;;;;;;1.23;0.75;;;7.90;65.80;;;;;;5009451;28;20210;-83
2020/12/28 12:02:20;;;;;;;1.15;1.05;;;7.90;66.20;;;;;;5009273;28;20310;-84
2020/12/28 12:04:49;;;;;;;1.40;1.30;;;7.70;67.80;;;;;;5014920;28;20250;-84
2020/12/28 12:07:17;;;;;;;2.45;1.35;;;7.40;72.40;;;;;;5015925;28;20236;-82
2020/12/28 12:09:45;;;;;;;2.03;1.10;;;6.70;77.70;;;;;;5015437;28;20209;-85
2020/12/28 12:12:12;;;;;;;1.30;1.20;;;6.10;84.10;;;;;;5016322;28;20205;-84
2020/12/28 12:14:39;;;;;;;1.95;0.80;;;5.80;90.10;;;;;;5016283;28;20269;-87
2020/12/28 12:17:06;;;;;;;0.80;0.80;;;5.50;90.60;;;;;;5015538;28;20225;-84
2020/12/28 12:19:33;;;;;;;0.77;0.73;;;5.30;92.50;;;;;;5014815;28;20272;-87
2020/12/28 12:21:59;;;;;;;1.95;1.08;;;5.20;94.00;;;;;;5014411;28;20252;-87
2020/12/28 12:24:26;;;;;;;1.02;0.70;;;5.20;95.10;;;;;;5014038;28;20220;-87
2020/12/28 12:26:53;;;;;;;1.20;0.60;;;5.00;95.30;;;;;;5014783;28;20256;-86
2020/12/28 12:29:20;;;;;;;1.05;1.05;;;4.90;95.60;;;;;;5015764;28;20193;-86
2020/12/28 12:31:49;;;;;;;1.15;1.00;;;5.00;96.00;;;;;;5016632;28;20233;-87
2020/12/28 12:34:17;;;;;;;1.08;0.90;;;5.00;96.40;;;;;;5015519;28;20266;-86
2020/12/28 12:36:44;;;;;;;1.23;0.80;;;5.00;96.90;;;;;;5016195;28;20297;-87
2020/12/28 12:39:11;;;;;;;1.02;1.00;;;5.10;97.00;;;;;;5016776;28;20197;-85
2020/12/28 12:41:41;;;;;;;0.82;0.80;;;5.10;97.30;;;;;;5016617;28;20256;-85
2020/12/28 12:44:09;;;;;;;0.90;0.90;;;5.20;97.00;;;;;;5016248;28;20192;-87
2020/12/28 12:46:35;;;;;;;2.45;1.10;;;5.20;97.00;;;;;;5016183;28;20216;-86
2020/12/28 12:49:19;;;;;;;1.20;1.00;;;5.30;97.30;;;;;;5016026;28;20213;-87
2020/12/28 12:51:45;;;;;;;1.02;0.90;;;5.40;97.60;;;;;;5015737;28;20256;-85
2020/12/28 12:54:12;;;;;;;1.30;1.20;;;5.40;97.20;;;;;;5016314;28;20182;-88
2020/12/28 12:56:39;;;;;;;3.80;1.25;;;5.40;97.10;;;;;;5016245;28;20213;-87
2020/12/28 12:59:06;;;;;;;2.00;1.88;;;5.40;97.10;;;;;;5015602;28;20245;-86